createdAt,value
2024-04-23T15:59:08.947Z,1008.30
2024-04-23T16:00:08.879Z,1008.28
2024-04-23T16:02:12.875Z,1008.26
2024-04-23T16:03:12.847Z,1008.32
2024-04-23T16:04:12.734Z,1008.29
2024-04-23T16:05:12.785Z,1008.23
2024-04-23T16:06:12.684Z,1008.27
2024-04-23T16:07:12.631Z,1008.37
2024-04-23T16:08:13.293Z,1008.30
2024-04-23T16:09:12.554Z,1008.29
2024-04-23T16:10:12.520Z,1008.32
2024-04-23T16:11:12.614Z,1008.36
2024-04-23T16:12:12.516Z,1008.18
2024-04-23T16:13:12.426Z,1008.20
2024-04-23T16:14:12.418Z,1008.24
2024-04-23T16:15:12.367Z,1008.25
2024-04-23T16:16:12.457Z,1008.17
2024-04-23T16:17:12.367Z,1008.21
2024-04-23T16:18:12.586Z,1008.22
2024-04-23T16:19:12.291Z,1008.20
2024-04-23T16:20:12.224Z,1008.17
2024-04-23T16:21:12.407Z,1008.01
2024-04-23T16:22:12.128Z,1008.05
2024-04-23T16:23:12.204Z,1008.00
2024-04-23T16:24:12.060Z,1008.00
2024-04-23T16:25:12.030Z,1007.97
2024-04-23T16:26:12.101Z,1007.92
2024-04-23T16:27:11.949Z,1007.92
2024-04-23T16:28:11.915Z,1007.95
2024-04-23T16:29:11.976Z,1007.92
2024-04-23T16:30:11.850Z,1007.94
2024-04-23T16:31:11.841Z,1007.89
2024-04-23T16:32:11.833Z,1008.05
2024-04-23T16:33:11.829Z,1008.05
2024-04-23T16:34:11.720Z,1007.90
2024-04-23T16:35:11.776Z,1007.87
2024-04-23T16:36:11.670Z,1007.84
2024-04-23T16:37:11.605Z,1007.85
2024-04-23T16:38:11.650Z,1007.82
2024-04-23T16:39:12.329Z,1007.81
2024-04-23T16:40:11.513Z,1007.81
2024-04-23T16:41:11.523Z,1007.82
2024-04-23T16:42:11.450Z,1007.86
2024-04-23T16:43:11.430Z,1007.81
2024-04-23T16:44:11.391Z,1007.79
2024-04-23T16:45:11.344Z,1007.81
2024-04-23T16:46:11.360Z,1007.79
2024-04-23T16:47:11.302Z,1007.79
2024-04-23T16:48:11.311Z,1007.77
2024-04-23T16:49:11.204Z,1007.78
2024-04-23T16:50:11.255Z,1007.77
2024-04-23T16:51:11.155Z,1007.76
2024-04-23T16:52:11.110Z,1007.76
2024-04-23T16:53:11.135Z,1007.81
2024-04-23T16:54:11.018Z,1007.72
2024-04-23T16:55:10.986Z,1007.76
2024-04-23T16:56:11.029Z,1007.83
2024-04-23T16:57:10.921Z,1007.77
2024-04-23T16:58:10.885Z,1007.72
2024-04-23T16:59:11.723Z,1007.76
2024-04-23T17:00:10.809Z,1007.85
2024-04-23T17:01:10.862Z,1007.76
2024-04-23T17:02:10.887Z,1007.70
2024-04-23T17:03:11.010Z,1007.80
2024-04-23T17:04:10.709Z,1007.78
2024-04-23T17:05:10.710Z,1007.71
2024-04-23T17:06:10.610Z,1007.68
2024-04-23T17:07:10.579Z,1007.65
2024-04-23T17:08:10.603Z,1007.71
2024-04-23T17:09:10.497Z,1007.68
2024-04-23T17:10:10.468Z,1007.66
2024-04-23T17:11:10.530Z,1007.66
2024-04-23T17:12:10.558Z,1007.65
2024-04-23T17:13:10.362Z,1007.61
2024-04-23T17:14:10.351Z,1007.62
2024-04-23T17:15:10.360Z,1007.60
2024-04-23T17:16:10.294Z,1007.60
2024-04-23T17:17:10.784Z,1007.55
2024-04-23T17:18:10.411Z,1007.56
2024-04-23T17:19:10.171Z,1007.54
2024-04-23T17:20:10.333Z,1007.52
2024-04-23T17:21:10.077Z,1007.47
2024-04-23T17:22:10.044Z,1007.51
2024-04-23T17:23:10.081Z,1007.53
2024-04-23T17:24:10.009Z,1007.48
2024-04-23T17:25:09.937Z,1007.46
2024-04-23T17:26:09.956Z,1007.48
2024-04-23T17:27:09.878Z,1007.52
2024-04-23T17:28:09.829Z,1007.54
2024-04-23T17:29:09.827Z,1007.54
2024-04-23T17:30:09.768Z,1007.50
2024-04-23T17:31:09.917Z,1007.46
2024-04-23T17:32:09.889Z,1007.51
2024-04-23T17:33:10.380Z,1007.49
2024-04-23T17:34:09.627Z,1007.50
2024-04-23T17:35:09.604Z,1007.46
2024-04-23T17:36:09.548Z,1007.44
2024-04-23T17:37:09.548Z,1007.45
2024-04-23T17:38:09.533Z,1007.46
2024-04-23T17:39:09.447Z,1007.43
2024-04-23T17:40:09.449Z,1007.42
2024-04-23T17:41:11.302Z,1007.34
2024-04-23T17:42:09.336Z,1007.44
2024-04-23T17:43:09.314Z,1007.37
2024-04-23T17:44:09.306Z,1007.35
2024-04-23T17:45:09.241Z,1007.35
2024-04-23T17:46:09.201Z,1007.32
2024-04-23T17:47:09.212Z,1007.39
2024-04-23T17:48:09.232Z,1007.35
2024-04-23T17:49:09.103Z,1007.35
2024-04-23T17:50:09.181Z,1007.40
2024-04-23T17:51:09.022Z,1007.38
2024-04-23T17:52:09.045Z,1007.35
2024-04-23T17:53:08.984Z,1007.32
2024-04-23T17:54:08.915Z,1007.33
2024-04-23T17:55:09.042Z,1007.33
2024-04-23T17:56:08.935Z,1007.31
2024-04-23T17:57:08.856Z,1007.33
2024-04-23T17:58:08.775Z,1007.33
2024-04-23T17:59:08.981Z,1007.31
2024-04-23T18:00:08.703Z,1007.31
2024-04-23T18:01:08.778Z,1007.30
2024-04-23T18:02:08.662Z,1007.26
2024-04-23T18:03:08.627Z,1007.25
2024-04-23T18:04:08.600Z,1007.25
2024-04-23T18:05:08.560Z,1007.26
2024-04-23T18:06:08.516Z,1007.21
2024-04-23T18:07:08.452Z,1007.21
2024-04-23T18:08:08.492Z,1007.16
2024-04-23T18:09:08.384Z,1007.15
2024-04-23T18:10:08.357Z,1007.17
2024-04-23T18:11:09.534Z,1007.20
2024-04-23T18:12:08.277Z,1007.17
2024-04-23T18:13:08.265Z,1007.18
2024-04-23T18:14:08.230Z,1007.17
2024-04-23T18:15:08.176Z,1007.19
2024-04-23T18:16:08.131Z,1007.19
2024-04-23T18:17:08.171Z,1007.18
2024-04-23T18:18:08.149Z,1007.18
2024-04-23T18:19:08.031Z,1007.21
2024-04-23T18:20:08.039Z,1007.20
2024-04-23T18:21:07.956Z,1007.20
2024-04-23T18:22:07.962Z,1007.20
2024-04-23T18:23:07.926Z,1007.18
2024-04-23T18:24:07.845Z,1007.12
2024-04-23T18:25:07.809Z,1007.14
2024-04-23T18:26:07.788Z,1007.15
2024-04-23T18:27:07.734Z,1007.13
2024-04-23T18:28:07.712Z,1007.10
2024-04-23T18:29:07.736Z,1007.12
2024-04-23T18:30:07.640Z,1007.11
2024-04-23T18:31:07.592Z,1007.08
2024-04-23T18:32:07.607Z,1007.05
2024-04-23T18:33:07.612Z,1007.04
2024-04-23T18:34:07.496Z,1007.05
2024-04-23T18:35:07.500Z,1007.06
2024-04-23T18:36:07.418Z,1007.03
2024-04-23T18:37:07.377Z,1007.05
2024-04-23T18:38:07.405Z,1007.04
2024-04-23T18:39:07.307Z,1007.05
2024-04-23T18:40:07.266Z,1007.02
2024-04-23T18:41:07.289Z,1007.03
2024-04-23T18:42:07.194Z,1007.03
2024-04-23T18:43:07.167Z,1007.00
2024-04-23T18:44:07.189Z,1006.97
2024-04-23T18:45:07.091Z,1007.00
2024-04-23T18:46:07.054Z,1006.99
2024-04-23T18:47:07.095Z,1006.97
2024-04-23T18:48:07.012Z,1006.95
2024-04-23T18:49:06.946Z,1006.91
2024-04-23T18:50:06.971Z,1006.91
2024-04-23T18:51:06.905Z,1006.89
2024-04-23T18:52:06.839Z,1006.89
2024-04-23T18:53:06.824Z,1006.88
2024-04-23T18:54:06.763Z,1006.88
2024-04-23T18:55:06.746Z,1006.84
2024-04-23T18:56:06.709Z,1006.89
2024-04-23T18:57:06.656Z,1006.83
2024-04-23T18:58:06.614Z,1006.86
2024-04-23T18:59:06.659Z,1006.86
2024-04-23T19:00:08.141Z,1006.87
2024-04-23T19:01:06.558Z,1006.83
2024-04-23T19:02:06.569Z,1006.85
2024-04-23T19:03:06.439Z,1006.86
2024-04-23T19:04:06.435Z,1006.86
2024-04-23T19:05:06.385Z,1006.85
2024-04-23T19:06:06.340Z,1006.85
2024-04-23T19:07:06.310Z,1006.85
2024-04-23T19:08:06.298Z,1006.86
2024-04-23T19:09:06.232Z,1006.85
2024-04-23T19:10:06.203Z,1006.84
2024-04-23T19:11:06.195Z,1006.80
2024-04-23T19:12:06.127Z,1006.82
2024-04-23T19:13:06.077Z,1006.83
2024-04-23T19:14:11.836Z,1006.80
2024-04-23T19:15:06.005Z,1006.77
2024-04-23T19:16:05.960Z,1006.78
2024-04-23T19:17:05.966Z,1006.75
2024-04-23T19:18:05.933Z,1006.78
2024-04-23T19:19:06.788Z,1006.78
2024-04-23T19:20:05.881Z,1006.78
2024-04-23T19:21:05.774Z,1006.80
2024-04-23T19:22:05.737Z,1006.78
2024-04-23T19:23:05.712Z,1006.74
2024-04-23T19:24:05.679Z,1006.76
2024-04-23T19:25:05.621Z,1006.73
2024-04-23T19:26:05.709Z,1006.73
2024-04-23T19:27:05.549Z,1006.74
2024-04-23T19:28:05.520Z,1006.74
2024-04-23T19:29:05.528Z,1006.76
2024-04-23T19:30:05.448Z,1006.71
2024-04-23T19:31:05.410Z,1006.72
2024-04-23T19:32:05.426Z,1006.72
2024-04-23T19:33:08.199Z,1006.70
2024-04-23T19:34:05.529Z,1006.72
2024-04-23T19:35:05.310Z,1006.75
2024-04-23T19:36:05.305Z,1006.67
2024-04-23T19:37:05.200Z,1006.71
2024-04-23T19:38:05.178Z,1006.69
2024-04-23T19:39:05.164Z,1006.70
2024-04-23T19:40:05.078Z,1006.67
2024-04-23T19:41:05.062Z,1006.69
2024-04-23T19:42:05.017Z,1006.70
2024-04-23T19:43:05.039Z,1006.67
2024-04-23T19:44:04.954Z,1006.68
2024-04-23T19:45:04.889Z,1006.65
2024-04-23T19:46:04.857Z,1006.64
2024-04-23T19:47:04.850Z,1006.63
2024-04-23T19:48:04.837Z,1006.63
2024-04-23T19:49:04.776Z,1006.65
2024-04-23T19:50:04.739Z,1006.59
2024-04-23T19:51:04.661Z,1006.65
2024-04-23T19:52:04.634Z,1006.64
2024-04-23T19:53:04.656Z,1006.62
2024-04-23T19:54:04.574Z,1006.62
2024-04-23T19:55:04.530Z,1006.59
2024-04-23T19:56:04.522Z,1006.60
2024-04-23T19:57:04.471Z,1006.61
2024-04-23T19:58:04.412Z,1006.59
2024-04-23T19:59:06.772Z,1006.53
2024-04-23T20:00:04.350Z,1006.52
2024-04-23T20:01:04.390Z,1006.51
2024-04-23T20:02:04.307Z,1006.52
2024-04-23T20:03:04.297Z,1006.47
2024-04-23T20:04:04.207Z,1006.48
2024-04-23T20:05:04.750Z,1006.51
2024-04-23T20:06:04.122Z,1006.48
2024-04-23T20:07:04.069Z,1006.48
2024-04-23T20:08:04.092Z,1006.45
2024-04-23T20:09:03.997Z,1006.48
2024-04-23T20:10:03.978Z,1006.45
2024-04-23T20:11:04.332Z,1006.46
2024-04-23T20:12:03.931Z,1006.41
2024-04-23T20:13:03.853Z,1006.43
2024-04-23T20:14:03.909Z,1006.42
2024-04-23T20:15:03.814Z,1006.44
2024-04-23T20:16:03.742Z,1006.39
2024-04-23T20:17:03.840Z,1006.39
2024-04-23T20:18:03.818Z,1006.35
2024-04-23T20:19:03.634Z,1006.35
2024-04-23T20:20:03.640Z,1006.37
2024-04-23T20:21:03.563Z,1006.35
2024-04-23T20:22:06.566Z,1006.37
2024-04-23T20:23:03.532Z,1006.34
2024-04-23T20:24:03.443Z,1006.31
2024-04-23T20:25:03.432Z,1006.29
2024-04-23T20:26:03.391Z,1006.25
2024-04-23T20:27:03.369Z,1006.22
2024-04-23T20:28:03.292Z,1006.21
2024-04-23T20:29:03.279Z,1006.21
2024-04-23T20:30:03.219Z,1006.18
2024-04-23T20:31:03.193Z,1006.21
2024-04-23T20:32:03.203Z,1006.20
2024-04-23T20:33:03.180Z,1006.18
2024-04-23T20:34:03.839Z,1006.17
2024-04-23T20:35:03.056Z,1006.17
2024-04-23T20:36:02.999Z,1006.16
2024-04-23T20:37:02.968Z,1006.16
2024-04-23T20:38:02.956Z,1006.13
2024-04-23T20:39:02.913Z,1006.10
2024-04-23T20:40:02.863Z,1006.10
2024-04-23T20:41:02.843Z,1006.07
2024-04-23T20:42:02.782Z,1006.12
2024-04-23T20:43:02.751Z,1006.07
2024-04-23T20:44:02.727Z,1006.10
2024-04-23T20:45:02.685Z,1006.09
2024-04-23T20:46:02.632Z,1006.10
2024-04-23T20:47:02.698Z,1006.10
2024-04-23T20:48:02.683Z,1006.13
2024-04-23T20:49:02.540Z,1006.10
2024-04-23T20:50:02.729Z,1006.10
2024-04-23T20:51:02.459Z,1006.13
2024-04-23T20:52:02.405Z,1006.11
2024-04-23T20:53:02.388Z,1006.10
2024-04-23T20:54:02.328Z,1006.08
2024-04-23T20:55:03.297Z,1006.10
2024-04-23T20:56:02.277Z,1006.11
2024-04-23T20:57:02.274Z,1006.10
2024-04-23T20:58:03.689Z,1006.09
2024-04-23T20:59:02.185Z,1006.11
2024-04-23T21:00:02.124Z,1006.06
2024-04-23T21:01:02.086Z,1006.09
2024-04-23T21:02:02.069Z,1006.18
2024-04-23T21:03:02.134Z,1006.14
2024-04-23T21:04:02.053Z,1006.13
2024-04-23T21:05:02.122Z,1006.11
2024-04-23T21:06:01.909Z,1006.15
2024-04-23T21:07:01.853Z,1006.17
2024-04-23T21:08:01.859Z,1006.32
2024-04-23T21:09:01.763Z,1006.35
2024-04-23T21:10:01.774Z,1006.16
2024-04-23T21:11:01.853Z,1006.08
2024-04-23T21:12:01.753Z,1006.02
2024-04-23T21:13:01.617Z,1006.04
2024-04-23T21:14:01.624Z,1006.01
2024-04-23T21:15:01.553Z,1006.07
2024-04-23T21:16:01.506Z,1006.04
2024-04-23T21:17:01.558Z,1006.01
2024-04-23T21:18:01.476Z,1006.03
2024-04-23T21:19:01.394Z,1006.07
2024-04-23T21:20:01.384Z,1006.04
2024-04-23T21:21:01.319Z,1006.02
2024-04-23T21:22:01.264Z,1005.95
2024-04-23T21:23:01.256Z,1005.92
2024-04-23T21:24:01.214Z,1005.90
2024-04-23T21:25:01.784Z,1005.90
2024-04-23T21:26:01.164Z,1005.87
2024-04-23T21:27:01.087Z,1005.84
2024-04-23T21:28:01.060Z,1005.85
2024-04-23T21:29:01.024Z,1005.87
2024-04-23T21:30:00.972Z,1005.85
2024-04-23T21:31:00.934Z,1005.86
2024-04-23T21:32:00.982Z,1005.87
2024-04-23T21:33:00.925Z,1005.83
2024-04-23T21:34:00.821Z,1005.81
2024-04-23T21:35:00.865Z,1005.79
2024-04-23T21:36:00.750Z,1005.78
2024-04-23T21:37:00.704Z,1005.74
2024-04-23T21:38:00.682Z,1005.71
2024-04-23T21:39:01.279Z,1005.69
2024-04-23T21:40:00.719Z,1005.69
2024-04-23T21:41:00.584Z,1005.67
2024-04-23T21:42:00.550Z,1005.69
2024-04-23T21:43:00.496Z,1005.64
2024-04-23T21:44:00.521Z,1005.61
2024-04-23T21:45:00.425Z,1005.60
2024-04-23T21:46:00.374Z,1005.55
2024-04-23T21:47:00.431Z,1005.53
2024-04-23T21:48:00.498Z,1005.52
2024-04-23T21:49:00.445Z,1005.51
2024-04-23T21:50:00.325Z,1005.44
2024-04-23T21:51:00.189Z,1005.48
2024-04-23T21:52:16.417Z,1005.48
2024-04-23T21:53:00.199Z,1005.50
2024-04-23T21:54:00.078Z,1005.42
2024-04-23T21:55:00.024Z,1005.44
2024-04-23T21:56:00.010Z,1005.44
2024-04-23T21:56:59.973Z,1005.42
2024-04-23T21:58:00.792Z,1005.42
2024-04-23T21:58:59.943Z,1005.42
2024-04-23T21:59:59.846Z,1005.39
2024-04-23T22:00:59.828Z,1005.38
2024-04-23T22:01:59.824Z,1005.37
2024-04-23T22:02:59.879Z,1005.35
2024-04-23T22:03:59.789Z,1005.36
2024-04-23T22:04:59.696Z,1005.36
2024-04-23T22:05:59.643Z,1005.32
2024-04-23T22:06:59.574Z,1005.37
2024-04-23T22:07:59.573Z,1005.39
2024-04-23T22:08:59.506Z,1005.40
2024-04-23T22:09:59.466Z,1005.36
2024-04-23T22:10:59.485Z,1005.37
2024-04-23T22:11:59.424Z,1005.37
2024-04-23T22:13:00.281Z,1005.36
2024-04-23T22:13:59.340Z,1005.40
2024-04-23T22:14:59.351Z,1005.37
2024-04-23T22:15:59.246Z,1005.35
2024-04-23T22:16:59.285Z,1005.31
2024-04-23T22:17:59.403Z,1005.26
2024-04-23T22:18:59.124Z,1005.25
2024-04-23T22:19:59.106Z,1005.29
2024-04-23T22:20:59.075Z,1005.31
2024-04-23T22:21:59.011Z,1005.29
2024-04-23T22:22:59.023Z,1005.27
2024-04-23T22:23:58.942Z,1005.27
2024-04-23T22:24:58.933Z,1005.26
2024-04-23T22:25:58.889Z,1005.30
2024-04-23T22:26:58.833Z,1005.27
2024-04-23T22:27:58.782Z,1005.29
2024-04-23T22:28:58.791Z,1005.27
2024-04-23T22:29:58.713Z,1005.30
2024-04-23T22:30:58.666Z,1005.30
2024-04-23T22:31:58.647Z,1005.32
2024-04-23T22:32:58.768Z,1005.29
2024-04-23T22:33:58.681Z,1005.27
2024-04-23T22:34:58.569Z,1005.30
2024-04-23T22:35:58.488Z,1005.33
2024-04-23T22:36:58.451Z,1005.32
2024-04-23T22:37:58.440Z,1005.36
2024-04-23T22:38:58.373Z,1005.36
2024-04-23T22:39:58.327Z,1005.36
2024-04-23T22:40:58.323Z,1005.36
2024-04-23T22:41:58.261Z,1005.34
2024-04-23T22:42:58.227Z,1005.31
2024-04-23T22:43:58.255Z,1005.32
2024-04-23T22:44:58.137Z,1005.32
2024-04-23T22:45:58.107Z,1005.31
2024-04-23T22:46:58.116Z,1005.26
2024-04-23T22:47:58.111Z,1005.25
2024-04-23T22:48:58.142Z,1005.24
2024-04-23T22:49:57.979Z,1005.23
2024-04-23T22:50:57.917Z,1005.20
2024-04-23T22:51:57.873Z,1005.21
2024-04-23T22:52:57.864Z,1005.18
2024-04-23T22:53:57.808Z,1005.19
2024-04-23T22:54:57.762Z,1005.20
2024-04-23T22:55:57.782Z,1005.15
2024-04-23T22:56:57.697Z,1005.16
2024-04-23T22:57:57.655Z,1005.17
2024-04-23T22:58:57.670Z,1005.13
2024-04-23T22:59:57.569Z,1005.17
2024-04-23T23:00:57.570Z,1005.16
2024-04-23T23:01:57.547Z,1005.15
2024-04-23T23:02:57.516Z,1005.16
2024-04-23T23:03:57.497Z,1005.15
2024-04-23T23:04:57.391Z,1005.10
2024-04-23T23:05:57.360Z,1005.07
2024-04-23T23:06:57.314Z,1005.07
2024-04-23T23:07:57.294Z,1005.10
2024-04-23T23:08:57.228Z,1005.08
2024-04-23T23:09:57.196Z,1005.06
2024-04-23T23:10:57.271Z,1005.02
2024-04-23T23:11:57.196Z,1005.04
2024-04-23T23:12:57.085Z,1005.04
2024-04-23T23:13:57.073Z,1005.00
2024-04-23T23:14:57.018Z,1004.98
2024-04-23T23:15:57.005Z,1004.97
2024-04-23T23:16:56.957Z,1004.99
2024-04-23T23:17:56.919Z,1004.97
2024-04-23T23:18:56.854Z,1004.97
2024-04-23T23:19:56.834Z,1004.95
2024-04-23T23:20:56.776Z,1004.89
2024-04-23T23:21:56.752Z,1004.87
2024-04-23T23:22:56.717Z,1004.84
2024-04-23T23:23:56.665Z,1004.80
2024-04-23T23:24:56.633Z,1004.80
2024-04-23T23:25:56.616Z,1004.78
2024-04-23T23:26:56.545Z,1004.79
2024-04-23T23:27:56.519Z,1004.76
2024-04-23T23:28:56.501Z,1004.77
2024-04-23T23:29:56.424Z,1004.74
2024-04-23T23:30:56.398Z,1004.73
2024-04-23T23:31:56.374Z,1004.72
2024-04-23T23:32:56.366Z,1004.75
2024-04-23T23:33:56.310Z,1004.77
2024-04-23T23:34:56.271Z,1004.77
2024-04-23T23:35:56.199Z,1004.74
2024-04-23T23:36:56.180Z,1004.70
2024-04-23T23:37:56.186Z,1004.77
2024-04-23T23:38:56.083Z,1004.80
2024-04-23T23:39:56.051Z,1004.76
2024-04-23T23:40:56.028Z,1004.79
2024-04-23T23:41:55.985Z,1004.74
2024-04-23T23:42:55.944Z,1004.75
2024-04-23T23:43:55.963Z,1004.73
2024-04-23T23:44:55.858Z,1004.75
2024-04-23T23:45:55.835Z,1004.66
2024-04-23T23:46:55.850Z,1004.68
2024-04-23T23:47:55.999Z,1004.65
2024-04-23T23:48:55.700Z,1004.68
2024-04-23T23:49:55.693Z,1004.60
2024-04-23T23:50:55.617Z,1004.63
2024-04-23T23:51:55.585Z,1004.61
2024-04-23T23:52:55.578Z,1004.60
2024-04-23T23:53:55.521Z,1004.62
2024-04-23T23:54:55.481Z,1004.59
2024-04-23T23:55:55.513Z,1004.57
2024-04-23T23:56:55.388Z,1004.49
2024-04-23T23:57:55.380Z,1004.45
2024-04-23T23:58:55.355Z,1004.48
2024-04-23T23:59:55.269Z,1004.44
